sensor_id;sensor_type;location;lat;lon;timestamp;pressure;altitude;pressure_sealevel;temperature;humidity
35226;BME280;21813;49.686;21.766;2023-03-15T00:01:18;96886.25;;;11.40;79.19
35226;BME280;21813;49.686;21.766;2023-03-15T00:03:46;96889.19;;;11.37;78.76
35226;BME280;21813;49.686;21.766;2023-03-15T00:06:13;96901.22;;;11.38;78.85
35226;BME280;21813;49.686;21.766;2023-03-15T00:08:39;96886.25;;;11.32;79.06
35226;BME280;21813;49.686;21.766;2023-03-15T00:11:05;96893.41;;;11.30;79.28
35226;BME280;21813;49.686;21.766;2023-03-15T00:13:32;96904.81;;;11.29;79.58
35226;BME280;21813;49.686;21.766;2023-03-15T00:16:00;96903.69;;;11.23;79.66
35226;BME280;21813;49.686;21.766;2023-03-15T00:18:28;96907.09;;;11.16;79.75
35226;BME280;21813;49.686;21.766;2023-03-15T00:20:54;96915.25;;;11.13;80.32
35226;BME280;21813;49.686;21.766;2023-03-15T00:23:21;96913.28;;;11.06;80.30
35226;BME280;21813;49.686;21.766;2023-03-15T00:25:48;96918.81;;;11.03;80.88
35226;BME280;21813;49.686;21.766;2023-03-15T00:28:16;96919.44;;;10.97;81.22
35226;BME280;21813;49.686;21.766;2023-03-15T00:30:42;96920.09;;;10.91;81.36
35226;BME280;21813;49.686;21.766;2023-03-15T00:33:12;96921.56;;;10.86;81.88
35226;BME280;21813;49.686;21.766;2023-03-15T00:35:40;96928.22;;;10.80;82.33
35226;BME280;21813;49.686;21.766;2023-03-15T00:38:07;96925.94;;;10.77;82.71
35226;BME280;21813;49.686;21.766;2023-03-15T00:40:33;96924.59;;;10.73;82.92
35226;BME280;21813;49.686;21.766;2023-03-15T00:43:01;96923.28;;;10.69;83.33
35226;BME280;21813;49.686;21.766;2023-03-15T00:45:27;96929.66;;;10.67;83.60
35226;BME280;21813;49.686;21.766;2023-03-15T00:47:54;96921.63;;;10.60;83.61
35226;BME280;21813;49.686;21.766;2023-03-15T00:50:21;96928.13;;;10.56;83.84
35226;BME280;21813;49.686;21.766;2023-03-15T00:52:49;96933.34;;;10.56;84.44
35226;BME280;21813;49.686;21.766;2023-03-15T00:55:16;96932.81;;;10.44;84.80
35226;BME280;21813;49.686;21.766;2023-03-15T00:57:44;96948.75;;;10.41;85.13
35226;BME280;21813;49.686;21.766;2023-03-15T01:00:13;96954.28;;;10.38;85.38
35226;BME280;21813;49.686;21.766;2023-03-15T01:02:41;96961.75;;;10.33;85.86
35226;BME280;21813;49.686;21.766;2023-03-15T01:05:08;96963.53;;;10.33;85.81
35226;BME280;21813;49.686;21.766;2023-03-15T01:07:35;96965.13;;;10.26;85.94
35226;BME280;21813;49.686;21.766;2023-03-15T01:10:02;96966.06;;;10.16;86.65
35226;BME280;21813;49.686;21.766;2023-03-15T01:12:30;96976.47;;;10.16;86.91
35226;BME280;21813;49.686;21.766;2023-03-15T01:15:00;96982.25;;;10.10;87.22
35226;BME280;21813;49.686;21.766;2023-03-15T01:17:28;96982.56;;;10.07;87.52
35226;BME280;21813;49.686;21.766;2023-03-15T01:19:53;96991.19;;;10.08;87.93
35226;BME280;21813;49.686;21.766;2023-03-15T01:22:20;96993.25;;;10.04;88.01
35226;BME280;21813;49.686;21.766;2023-03-15T01:24:46;96996.53;;;10.06;87.91
35226;BME280;21813;49.686;21.766;2023-03-15T01:27:14;97003.38;;;10.07;87.86
35226;BME280;21813;49.686;21.766;2023-03-15T01:29:40;97008.28;;;10.10;87.80
35226;BME280;21813;49.686;21.766;2023-03-15T01:32:07;97004.72;;;10.11;87.71
35226;BME280;21813;49.686;21.766;2023-03-15T01:34:33;96997.06;;;10.10;87.86
35226;BME280;21813;49.686;21.766;2023-03-15T01:37:00;97009.91;;;10.11;87.60
35226;BME280;21813;49.686;21.766;2023-03-15T01:39:28;97002.94;;;10.12;87.64
35226;BME280;21813;49.686;21.766;2023-03-15T01:41:54;97004.72;;;10.11;87.80
35226;BME280;21813;49.686;21.766;2023-03-15T01:44:20;97003.91;;;10.11;87.96
35226;BME280;21813;49.686;21.766;2023-03-15T01:46:47;97003.38;;;10.07;87.27
35226;BME280;21813;49.686;21.766;2023-03-15T01:49:16;96994.59;;;10.08;87.63
35226;BME280;21813;49.686;21.766;2023-03-15T01:51:54;97001.16;;;10.12;87.24
35226;BME280;21813;49.686;21.766;2023-03-15T01:54:29;96998.19;;;10.07;87.46
35226;BME280;21813;49.686;21.766;2023-03-15T01:57:01;97006.34;;;10.12;87.69
35226;BME280;21813;49.686;21.766;2023-03-15T01:59:47;97017.72;;;10.11;87.83
35226;BME280;21813;49.686;21.766;2023-03-15T02:02:23;97016.09;;;10.10;88.14
35226;BME280;21813;49.686;21.766;2023-03-15T02:05:08;97022.56;;;10.06;88.76
35226;BME280;21813;49.686;21.766;2023-03-15T02:07:41;97022.06;;;10.03;89.17
35226;BME280;21813;49.686;21.766;2023-03-15T02:10:26;97020.56;;;10.00;89.46
35226;BME280;21813;49.686;21.766;2023-03-15T02:12:57;97032.47;;;10.03;89.79
35226;BME280;21813;49.686;21.766;2023-03-15T02:15:22;97033.59;;;10.00;90.50
35226;BME280;21813;49.686;21.766;2023-03-15T02:17:49;97037.16;;;9.99;90.55
35226;BME280;21813;49.686;21.766;2023-03-15T02:20:41;97035.69;;;9.97;90.54
35226;BME280;21813;49.686;21.766;2023-03-15T02:23:14;97049.50;;;9.97;90.81
35226;BME280;21813;49.686;21.766;2023-03-15T02:28:30;97062.81;;;9.94;91.91
35226;BME280;21813;49.686;21.766;2023-03-15T02:30:56;97070.63;;;9.94;92.21
35226;BME280;21813;49.686;21.766;2023-03-15T02:35:55;97081.66;;;9.88;93.95
35226;BME280;21813;49.686;21.766;2023-03-15T02:38:23;97083.56;;;9.86;94.42
35226;BME280;21813;49.686;21.766;2023-03-15T02:40:51;97091.00;;;9.81;95.73
35226;BME280;21813;49.686;21.766;2023-03-15T02:43:23;97093.53;;;9.73;96.45
35226;BME280;21813;49.686;21.766;2023-03-15T02:45:50;97104.25;;;9.70;97.62
35226;BME280;21813;49.686;21.766;2023-03-15T02:48:17;97106.75;;;9.62;99.48
35226;BME280;21813;49.686;21.766;2023-03-15T02:50:43;97109.44;;;9.52;100.00
35226;BME280;21813;49.686;21.766;2023-03-15T02:53:10;97129.88;;;9.47;100.00
35226;BME280;21813;49.686;21.766;2023-03-15T02:55:36;97130.19;;;9.35;100.00
35226;BME280;21813;49.686;21.766;2023-03-15T02:58:03;97137.91;;;9.26;100.00
35226;BME280;21813;49.686;21.766;2023-03-15T03:00:29;97143.66;;;9.20;100.00
35226;BME280;21813;49.686;21.766;2023-03-15T03:02:57;97159.06;;;9.04;100.00
35226;BME280;21813;49.686;21.766;2023-03-15T03:05:23;97167.59;;;8.87;100.00
35226;BME280;21813;49.686;21.766;2023-03-15T03:07:49;97179.41;;;8.72;100.00
35226;BME280;21813;49.686;21.766;2023-03-15T03:10:17;97189.25;;;8.59;100.00
35226;BME280;21813;49.686;21.766;2023-03-15T03:12:44;97194.19;;;8.42;100.00
35226;BME280;21813;49.686;21.766;2023-03-15T03:15:11;97202.13;;;8.31;100.00
35226;BME280;21813;49.686;21.766;2023-03-15T03:17:38;97198.16;;;8.18;100.00
35226;BME280;21813;49.686;21.766;2023-03-15T03:20:09;97202.63;;;8.06;100.00
35226;BME280;21813;49.686;21.766;2023-03-15T03:22:44;97221.88;;;7.94;100.00
35226;BME280;21813;49.686;21.766;2023-03-15T03:25:11;97223.09;;;7.80;100.00
35226;BME280;21813;49.686;21.766;2023-03-15T03:27:40;97234.25;;;7.71;100.00
35226;BME280;21813;49.686;21.766;2023-03-15T03:30:10;97242.00;;;7.62;100.00
35226;BME280;21813;49.686;21.766;2023-03-15T03:32:39;97247.28;;;7.50;100.00
35226;BME280;21813;49.686;21.766;2023-03-15T03:35:05;97244.78;;;7.39;100.00
35226;BME280;21813;49.686;21.766;2023-03-15T03:37:32;97262.63;;;7.33;100.00
35226;BME280;21813;49.686;21.766;2023-03-15T03:40:00;97280.44;;;7.26;100.00
35226;BME280;21813;49.686;21.766;2023-03-15T03:42:29;97277.38;;;7.12;100.00
35226;BME280;21813;49.686;21.766;2023-03-15T03:44:54;97284.13;;;7.03;100.00
35226;BME280;21813;49.686;21.766;2023-03-15T03:47:21;97296.44;;;6.90;100.00
35226;BME280;21813;49.686;21.766;2023-03-15T03:49:47;97305.50;;;6.75;100.00
35226;BME280;21813;49.686;21.766;2023-03-15T03:52:13;97317.75;;;6.61;100.00
35226;BME280;21813;49.686;21.766;2023-03-15T03:54:39;97325.84;;;6.47;100.00
35226;BME280;21813;49.686;21.766;2023-03-15T03:57:09;97331.03;;;6.36;100.00
35226;BME280;21813;49.686;21.766;2023-03-15T03:59:35;97335.09;;;6.18;100.00
35226;BME280;21813;49.686;21.766;2023-03-15T04:02:01;97336.53;;;6.00;100.00
35226;BME280;21813;49.686;21.766;2023-03-15T04:04:27;97342.41;;;5.91;100.00
35226;BME280;21813;49.686;21.766;2023-03-15T04:06:54;97361.88;;;5.84;100.00
35226;BME280;21813;49.686;21.766;2023-03-15T04:09:20;97361.91;;;5.72;100.00
35226;BME280;21813;49.686;21.766;2023-03-15T04:11:47;97359.28;;;5.61;98.75
35226;BME280;21813;49.686;21.766;2023-03-15T04:14:13;97369.94;;;5.46;97.42
35226;BME280;21813;49.686;21.766;2023-03-15T04:16:40;97382.03;;;5.34;96.49
35226;BME280;21813;49.686;21.766;2023-03-15T04:19:06;97388.22;;;5.20;96.70
35226;BME280;21813;49.686;21.766;2023-03-15T04:21:34;97387.59;;;5.06;97.32
35226;BME280;21813;49.686;21.766;2023-03-15T04:24:00;97405.41;;;4.98;97.82
35226;BME280;21813;49.686;21.766;2023-03-15T04:26:28;97412.66;;;4.93;97.83
35226;BME280;21813;49.686;21.766;2023-03-15T04:28:55;97413.56;;;4.80;97.59
35226;BME280;21813;49.686;21.766;2023-03-15T04:31:29;97419.97;;;4.75;98.17
35226;BME280;21813;49.686;21.766;2023-03-15T04:34:10;97421.34;;;4.68;98.24
35226;BME280;21813;49.686;21.766;2023-03-15T04:36:46;97430.78;;;4.56;98.67
35226;BME280;21813;49.686;21.766;2023-03-15T04:39:12;97430.59;;;4.47;99.40
35226;BME280;21813;49.686;21.766;2023-03-15T04:41:39;97442.16;;;4.41;99.84
35226;BME280;21813;49.686;21.766;2023-03-15T04:44:05;97447.88;;;4.33;100.00
35226;BME280;21813;49.686;21.766;2023-03-15T04:46:33;97449.13;;;4.28;100.00
35226;BME280;21813;49.686;21.766;2023-03-15T04:48:59;97457.06;;;4.25;100.00
35226;BME280;21813;49.686;21.766;2023-03-15T04:51:26;97443.88;;;4.17;100.00
35226;BME280;21813;49.686;21.766;2023-03-15T04:53:51;97455.66;;;4.21;100.00
35226;BME280;21813;49.686;21.766;2023-03-15T04:56:19;97453.56;;;4.13;100.00
35226;BME280;21813;49.686;21.766;2023-03-15T04:58:44;97463.78;;;4.15;100.00
35226;BME280;21813;49.686;21.766;2023-03-15T05:01:11;97458.22;;;4.08;100.00
35226;BME280;21813;49.686;21.766;2023-03-15T05:03:37;97461.00;;;4.05;100.00
35226;BME280;21813;49.686;21.766;2023-03-15T05:06:04;97462.25;;;3.99;100.00
35226;BME280;21813;49.686;21.766;2023-03-15T05:08:35;97469.97;;;3.99;100.00
35226;BME280;21813;49.686;21.766;2023-03-15T05:11:02;97464.13;;;3.97;100.00
35226;BME280;21813;49.686;21.766;2023-03-15T05:13:28;97471.13;;;3.95;100.00
35226;BME280;21813;49.686;21.766;2023-03-15T05:15:55;97464.53;;;3.91;100.00
35226;BME280;21813;49.686;21.766;2023-03-15T05:18:21;97474.09;;;3.89;100.00
35226;BME280;21813;49.686;21.766;2023-03-15T05:20:48;97464.09;;;3.85;100.00
35226;BME280;21813;49.686;21.766;2023-03-15T05:23:14;97467.41;;;3.87;100.00
35226;BME280;21813;49.686;21.766;2023-03-15T05:25:40;97466.81;;;3.83;100.00
35226;BME280;21813;49.686;21.766;2023-03-15T05:28:06;97480.41;;;3.85;100.00
35226;BME280;21813;49.686;21.766;2023-03-15T05:30:33;97474.09;;;3.77;100.00
35226;BME280;21813;49.686;21.766;2023-03-15T05:32:59;97477.50;;;3.77;100.00
35226;BME280;21813;49.686;21.766;2023-03-15T05:35:29;97484.63;;;3.74;100.00
35226;BME280;21813;49.686;21.766;2023-03-15T05:37:55;97495.75;;;3.74;100.00
35226;BME280;21813;49.686;21.766;2023-03-15T05:40:24;97499.34;;;3.72;100.00
35226;BME280;21813;49.686;21.766;2023-03-15T05:42:50;97513.28;;;3.69;100.00
35226;BME280;21813;49.686;21.766;2023-03-15T05:45:17;97488.22;;;3.59;100.00
35226;BME280;21813;49.686;21.766;2023-03-15T05:47:43;97503.22;;;3.52;100.00
35226;BME280;21813;49.686;21.766;2023-03-15T05:50:09;97521.19;;;3.53;100.00
35226;BME280;21813;49.686;21.766;2023-03-15T05:52:35;97514.56;;;3.49;100.00
35226;BME280;21813;49.686;21.766;2023-03-15T05:55:02;97525.88;;;3.47;100.00
35226;BME280;21813;49.686;21.766;2023-03-15T05:57:28;97515.78;;;3.44;100.00
35226;BME280;21813;49.686;21.766;2023-03-15T05:59:54;97540.72;;;3.43;100.00
35226;BME280;21813;49.686;21.766;2023-03-15T06:02:20;97540.31;;;3.37;100.00
35226;BME280;21813;49.686;21.766;2023-03-15T06:04:47;97547.09;;;3.38;100.00
35226;BME280;21813;49.686;21.766;2023-03-15T06:07:15;97546.66;;;3.31;100.00
35226;BME280;21813;49.686;21.766;2023-03-15T06:09:42;97547.69;;;3.29;100.00
35226;BME280;21813;49.686;21.766;2023-03-15T06:12:08;97545.50;;;3.23;100.00
35226;BME280;21813;49.686;21.766;2023-03-15T06:14:34;97553.03;;;3.26;100.00
35226;BME280;21813;49.686;21.766;2023-03-15T06:17:00;97555.69;;;3.24;100.00
35226;BME280;21813;49.686;21.766;2023-03-15T06:19:26;97558.09;;;3.27;100.00
35226;BME280;21813;49.686;21.766;2023-03-15T06:21:52;97563.88;;;3.31;100.00
35226;BME280;21813;49.686;21.766;2023-03-15T06:24:19;97569.94;;;3.30;100.00
35226;BME280;21813;49.686;21.766;2023-03-15T06:26:45;97579.13;;;3.34;100.00
35226;BME280;21813;49.686;21.766;2023-03-15T06:29:12;97571.59;;;3.31;100.00
35226;BME280;21813;49.686;21.766;2023-03-15T06:31:37;97575.81;;;3.32;100.00
35226;BME280;21813;49.686;21.766;2023-03-15T06:34:04;97578.19;;;3.35;100.00
35226;BME280;21813;49.686;21.766;2023-03-15T06:36:30;97572.41;;;3.31;100.00
35226;BME280;21813;49.686;21.766;2023-03-15T06:38:57;97593.84;;;3.32;100.00
35226;BME280;21813;49.686;21.766;2023-03-15T06:41:23;97586.50;;;3.26;100.00
35226;BME280;21813;49.686;21.766;2023-03-15T06:43:49;97596.09;;;3.24;100.00
35226;BME280;21813;49.686;21.766;2023-03-15T06:46:15;97596.09;;;3.24;100.00
35226;BME280;21813;49.686;21.766;2023-03-15T06:48:45;97596.09;;;3.24;100.00
35226;BME280;21813;49.686;21.766;2023-03-15T06:51:10;97597.91;;;3.22;100.00
35226;BME280;21813;49.686;21.766;2023-03-15T06:53:37;97603.56;;;3.14;100.00
35226;BME280;21813;49.686;21.766;2023-03-15T06:56:03;97614.28;;;3.21;100.00
35226;BME280;21813;49.686;21.766;2023-03-15T06:58:40;97611.91;;;3.18;100.00
35226;BME280;21813;49.686;21.766;2023-03-15T07:01:05;97621.09;;;3.22;100.00
35226;BME280;21813;49.686;21.766;2023-03-15T07:03:31;97629.44;;;3.25;100.00
35226;BME280;21813;49.686;21.766;2023-03-15T07:05:57;97623.38;;;3.26;100.00
35226;BME280;21813;49.686;21.766;2023-03-15T07:08:25;97617.69;;;3.21;100.00
35226;BME280;21813;49.686;21.766;2023-03-15T07:10:51;97623.88;;;3.19;100.00
35226;BME280;21813;49.686;21.766;2023-03-15T07:13:27;97625.78;;;3.15;100.00
35226;BME280;21813;49.686;21.766;2023-03-15T07:15:54;97624.78;;;3.18;100.00
35226;BME280;21813;49.686;21.766;2023-03-15T07:18:21;97632.31;;;3.21;100.00
35226;BME280;21813;49.686;21.766;2023-03-15T07:20:57;97632.50;;;3.18;100.00
35226;BME280;21813;49.686;21.766;2023-03-15T07:23:31;97636.91;;;3.16;100.00
35226;BME280;21813;49.686;21.766;2023-03-15T07:25:58;97648.03;;;3.16;100.00
35226;BME280;21813;49.686;21.766;2023-03-15T07:28:26;97651.25;;;3.20;100.00
35226;BME280;21813;49.686;21.766;2023-03-15T07:30:56;97644.75;;;3.14;100.00
35226;BME280;21813;49.686;21.766;2023-03-15T07:33:29;97661.75;;;3.17;100.00
35226;BME280;21813;49.686;21.766;2023-03-15T07:35:55;97658.81;;;3.08;100.00
35226;BME280;21813;49.686;21.766;2023-03-15T07:38:27;97659.72;;;3.07;100.00
35226;BME280;21813;49.686;21.766;2023-03-15T07:40:55;97676.94;;;3.07;100.00
35226;BME280;21813;49.686;21.766;2023-03-15T07:43:23;97677.75;;;3.07;100.00
35226;BME280;21813;49.686;21.766;2023-03-15T07:45:49;97675.94;;;3.09;100.00
35226;BME280;21813;49.686;21.766;2023-03-15T07:48:16;97683.09;;;3.04;100.00
35226;BME280;21813;49.686;21.766;2023-03-15T07:50:42;97687.97;;;3.09;100.00
35226;BME280;21813;49.686;21.766;2023-03-15T07:53:08;97694.75;;;3.10;100.00
35226;BME280;21813;49.686;21.766;2023-03-15T07:55:34;97699.19;;;3.08;100.00
35226;BME280;21813;49.686;21.766;2023-03-15T07:58:01;97695.84;;;3.06;100.00
35226;BME280;21813;49.686;21.766;2023-03-15T08:00:28;97700.19;;;3.05;100.00
35226;BME280;21813;49.686;21.766;2023-03-15T08:02:54;97706.16;;;3.06;100.00
35226;BME280;21813;49.686;21.766;2023-03-15T08:05:20;97708.72;;;3.06;100.00
35226;BME280;21813;49.686;21.766;2023-03-15T08:07:48;97709.66;;;3.05;100.00
35226;BME280;21813;49.686;21.766;2023-03-15T08:10:14;97710.66;;;3.02;100.00
35226;BME280;21813;49.686;21.766;2023-03-15T08:12:40;97719.69;;;2.95;100.00
35226;BME280;21813;49.686;21.766;2023-03-15T08:15:11;97719.13;;;2.90;100.00
35226;BME280;21813;49.686;21.766;2023-03-15T08:17:57;97723.59;;;2.87;100.00
35226;BME280;21813;49.686;21.766;2023-03-15T08:20:24;97728.03;;;2.85;100.00
35226;BME280;21813;49.686;21.766;2023-03-15T08:22:52;97733.38;;;2.82;100.00
35226;BME280;21813;49.686;21.766;2023-03-15T08:25:21;97742.00;;;2.81;100.00
35226;BME280;21813;49.686;21.766;2023-03-15T08:27:50;97742.16;;;2.78;100.00
35226;BME280;21813;49.686;21.766;2023-03-15T08:30:16;97749.25;;;2.74;100.00
35226;BME280;21813;49.686;21.766;2023-03-15T08:32:45;97752.66;;;2.75;100.00
35226;BME280;21813;49.686;21.766;2023-03-15T08:35:13;97760.44;;;2.73;100.00
35226;BME280;21813;49.686;21.766;2023-03-15T08:37:40;97767.44;;;2.71;100.00
35226;BME280;21813;49.686;21.766;2023-03-15T08:40:07;97761.72;;;2.66;100.00
35226;BME280;21813;49.686;21.766;2023-03-15T08:42:36;97754.19;;;2.63;100.00
35226;BME280;21813;49.686;21.766;2023-03-15T08:45:03;97769.44;;;2.66;100.00
35226;BME280;21813;49.686;21.766;2023-03-15T08:47:34;97773.19;;;2.60;100.00
35226;BME280;21813;49.686;21.766;2023-03-15T08:50:08;97774.09;;;2.59;100.00
35226;BME280;21813;49.686;21.766;2023-03-15T08:52:36;97779.34;;;2.58;100.00
35226;BME280;21813;49.686;21.766;2023-03-15T08:55:02;97785.97;;;2.62;100.00
35226;BME280;21813;49.686;21.766;2023-03-15T08:57:30;97769.78;;;2.60;100.00
35226;BME280;21813;49.686;21.766;2023-03-15T08:59:58;97782.31;;;2.66;100.00
35226;BME280;21813;49.686;21.766;2023-03-15T09:02:27;97777.72;;;2.71;100.00
35226;BME280;21813;49.686;21.766;2023-03-15T09:04:53;97782.53;;;2.77;100.00
35226;BME280;21813;49.686;21.766;2023-03-15T09:07:19;97786.31;;;2.86;100.00
35226;BME280;21813;49.686;21.766;2023-03-15T09:09:50;97779.16;;;2.91;100.00
35226;BME280;21813;49.686;21.766;2023-03-15T09:12:20;97789.25;;;2.94;100.00
35226;BME280;21813;49.686;21.766;2023-03-15T09:14:46;97786.59;;;2.95;100.00
35226;BME280;21813;49.686;21.766;2023-03-15T09:17:12;97790.09;;;2.94;100.00
35226;BME280;21813;49.686;21.766;2023-03-15T09:19:38;97791.91;;;2.92;100.00
35226;BME280;21813;49.686;21.766;2023-03-15T09:22:05;97792.75;;;2.93;100.00
35226;BME280;21813;49.686;21.766;2023-03-15T09:24:31;97791.09;;;2.92;100.00
35226;BME280;21813;49.686;21.766;2023-03-15T09:26:58;97797.44;;;2.86;100.00
35226;BME280;21813;49.686;21.766;2023-03-15T09:29:23;97797.59;;;2.83;100.00
35226;BME280;21813;49.686;21.766;2023-03-15T09:31:50;97794.13;;;2.84;100.00
35226;BME280;21813;49.686;21.766;2023-03-15T09:34:16;97786.00;;;2.76;100.00
35226;BME280;21813;49.686;21.766;2023-03-15T09:36:43;97793.53;;;2.79;100.00
35226;BME280;21813;49.686;21.766;2023-03-15T09:39:08;97797.69;;;2.82;100.00
35226;BME280;21813;49.686;21.766;2023-03-15T09:47:19;97803.91;;;2.78;100.00
35226;BME280;21813;49.686;21.766;2023-03-15T09:49:56;97803.28;;;2.74;100.00
35226;BME280;21813;49.686;21.766;2023-03-15T09:52:41;97813.56;;;2.74;100.00
35226;BME280;21813;49.686;21.766;2023-03-15T09:55:18;97814.47;;;2.73;100.00
35226;BME280;21813;49.686;21.766;2023-03-15T09:58:03;97818.91;;;2.71;100.00
35226;BME280;21813;49.686;21.766;2023-03-15T10:03:03;97819.06;;;2.68;100.00
35226;BME280;21813;49.686;21.766;2023-03-15T10:05:44;97818.50;;;2.63;100.00
35226;BME280;21813;49.686;21.766;2023-03-15T10:08:15;97817.75;;;2.61;100.00
35226;BME280;21813;49.686;21.766;2023-03-15T10:11:14;97815.09;;;2.62;100.00
35226;BME280;21813;49.686;21.766;2023-03-15T10:21:35;97817.84;;;2.59;100.00
35226;BME280;21813;49.686;21.766;2023-03-15T10:24:13;97813.63;;;2.58;100.00
35226;BME280;21813;49.686;21.766;2023-03-15T10:26:40;97817.94;;;2.58;100.00
35226;BME280;21813;49.686;21.766;2023-03-15T10:29:19;97828.94;;;2.60;100.00
35226;BME280;21813;49.686;21.766;2023-03-15T10:31:45;97834.34;;;2.55;100.00
35226;BME280;21813;49.686;21.766;2023-03-15T10:34:28;97828.56;;;2.52;100.00
35226;BME280;21813;49.686;21.766;2023-03-15T10:36:58;97836.22;;;2.53;100.00
35226;BME280;21813;49.686;21.766;2023-03-15T10:39:24;97823.41;;;2.52;100.00
35226;BME280;21813;49.686;21.766;2023-03-15T10:41:54;97840.19;;;2.59;100.00
35226;BME280;21813;49.686;21.766;2023-03-15T10:44:23;97844.97;;;2.65;100.00
35226;BME280;21813;49.686;21.766;2023-03-15T10:49:40;97838.66;;;2.71;100.00
35226;BME280;21813;49.686;21.766;2023-03-15T10:52:36;97845.09;;;2.78;100.00
35226;BME280;21813;49.686;21.766;2023-03-15T10:55:06;97850.91;;;2.81;100.00
35226;BME280;21813;49.686;21.766;2023-03-15T10:57:36;97848.16;;;2.84;100.00
35226;BME280;21813;49.686;21.766;2023-03-15T11:03:33;97846.91;;;2.91;100.00
35226;BME280;21813;49.686;21.766;2023-03-15T11:05:54;97843.03;;;2.98;100.00
35226;BME280;21813;49.686;21.766;2023-03-15T11:08:24;97850.50;;;3.03;100.00
35226;BME280;21813;49.686;21.766;2023-03-15T11:11:00;97843.41;;;3.06;100.00
35226;BME280;21813;49.686;21.766;2023-03-15T11:13:30;97844.16;;;3.08;100.00
35226;BME280;21813;49.686;21.766;2023-03-15T11:16:06;97847.31;;;3.14;100.00
35226;BME280;21813;49.686;21.766;2023-03-15T11:18:59;97851.34;;;3.18;100.00
35226;BME280;21813;49.686;21.766;2023-03-15T11:21:30;97850.44;;;3.19;100.00
35226;BME280;21813;49.686;21.766;2023-03-15T11:24:06;97849.25;;;3.24;100.00
35226;BME280;21813;49.686;21.766;2023-03-15T11:26:43;97857.72;;;3.26;100.00
35226;BME280;21813;49.686;21.766;2023-03-15T11:29:24;97863.63;;;3.28;100.00
35226;BME280;21813;49.686;21.766;2023-03-15T11:31:52;97855.06;;;3.28;100.00
35226;BME280;21813;49.686;21.766;2023-03-15T11:34:33;97867.66;;;3.32;100.00
35226;BME280;21813;49.686;21.766;2023-03-15T11:37:49;97861.84;;;3.29;100.00
35226;BME280;21813;49.686;21.766;2023-03-15T11:51:03;97876.94;;;3.35;100.00
35226;BME280;21813;49.686;21.766;2023-03-15T11:57:03;97872.16;;;3.43;100.00
35226;BME280;21813;49.686;21.766;2023-03-15T11:59:36;97870.34;;;3.45;100.00
35226;BME280;21813;49.686;21.766;2023-03-15T12:07:28;97877.88;;;3.62;100.00
35226;BME280;21813;49.686;21.766;2023-03-15T12:20:34;97872.38;;;3.82;93.88
35226;BME280;21813;49.686;21.766;2023-03-15T12:25:56;97879.75;;;3.88;94.84
35226;BME280;21813;49.686;21.766;2023-03-15T12:28:34;97881.22;;;3.92;92.90
35226;BME280;21813;49.686;21.766;2023-03-15T12:31:08;97889.38;;;3.99;89.55
35226;BME280;21813;49.686;21.766;2023-03-15T12:33:56;97889.94;;;4.04;90.01
35226;BME280;21813;49.686;21.766;2023-03-15T12:36:36;97874.19;;;4.09;89.84
35226;BME280;21813;49.686;21.766;2023-03-15T12:41:44;97881.88;;;4.23;88.82
35226;BME280;21813;49.686;21.766;2023-03-15T12:44:37;97891.84;;;4.29;88.69
35226;BME280;21813;49.686;21.766;2023-03-15T12:47:06;97887.94;;;4.36;88.06
35226;BME280;21813;49.686;21.766;2023-03-15T12:49:34;97879.28;;;4.37;88.60
35226;BME280;21813;49.686;21.766;2023-03-15T12:54:44;97884.78;;;4.45;83.89
35226;BME280;21813;49.686;21.766;2023-03-15T12:57:18;97890.56;;;4.49;84.38
35226;BME280;21813;49.686;21.766;2023-03-15T13:02:29;97894.06;;;4.62;84.19
35226;BME280;21813;49.686;21.766;2023-03-15T13:05:08;97888.69;;;4.65;82.98
35226;BME280;21813;49.686;21.766;2023-03-15T13:15:43;97905.13;;;4.76;81.44
35226;BME280;21813;49.686;21.766;2023-03-15T13:18:25;97883.78;;;4.74;79.94
35226;BME280;21813;49.686;21.766;2023-03-15T13:23:33;97899.47;;;4.71;81.33
35226;BME280;21813;49.686;21.766;2023-03-15T13:28:49;97908.47;;;4.78;82.22
35226;BME280;21813;49.686;21.766;2023-03-15T13:31:21;97919.63;;;4.79;82.84
35226;BME280;21813;49.686;21.766;2023-03-15T13:33:53;97916.22;;;4.78;82.35
35226;BME280;21813;49.686;21.766;2023-03-15T13:36:40;97929.03;;;4.80;83.18
35226;BME280;21813;49.686;21.766;2023-03-15T13:39:18;97924.69;;;4.80;82.88
35226;BME280;21813;49.686;21.766;2023-03-15T13:41:45;97923.88;;;4.80;82.83
35226;BME280;21813;49.686;21.766;2023-03-15T13:44:18;97915.47;;;4.76;83.17
35226;BME280;21813;49.686;21.766;2023-03-15T13:46:47;97924.88;;;4.77;83.67
35226;BME280;21813;49.686;21.766;2023-03-15T13:49:13;97928.38;;;4.76;83.93
35226;BME280;21813;49.686;21.766;2023-03-15T13:51:40;97939.72;;;4.74;83.68
35226;BME280;21813;49.686;21.766;2023-03-15T13:54:15;97930.53;;;4.70;84.74
35226;BME280;21813;49.686;21.766;2023-03-15T13:59:08;97933.09;;;4.70;83.19
35226;BME280;21813;49.686;21.766;2023-03-15T14:01:37;97945.47;;;4.65;82.61
35226;BME280;21813;49.686;21.766;2023-03-15T14:04:08;97933.06;;;4.57;83.54
35226;BME280;21813;49.686;21.766;2023-03-15T14:06:41;97948.72;;;4.54;82.98
35226;BME280;21813;49.686;21.766;2023-03-15T14:09:21;97945.59;;;4.49;83.32
35226;BME280;21813;49.686;21.766;2023-03-15T14:12:05;97944.88;;;4.47;82.71
35226;BME280;21813;49.686;21.766;2023-03-15T14:14:35;97944.13;;;4.45;83.30
35226;BME280;21813;49.686;21.766;2023-03-15T14:17:15;97961.47;;;4.43;83.02
35226;BME280;21813;49.686;21.766;2023-03-15T14:19:52;97955.84;;;4.36;82.72
35226;BME280;21813;49.686;21.766;2023-03-15T14:22:20;97954.28;;;4.34;83.34
35226;BME280;21813;49.686;21.766;2023-03-15T14:24:48;97948.19;;;4.35;82.84
35226;BME280;21813;49.686;21.766;2023-03-15T14:27:18;97949.84;;;4.36;83.16
35226;BME280;21813;49.686;21.766;2023-03-15T14:29:51;97950.25;;;4.30;82.51